sensor_id;sensor_type;location;lat;lon;timestamp;P1;durP1;ratioP1;P2;durP2;ratioP2
17564;SDS011;62994;52.126;5.596;2023-12-28T00:01:28;2.65;;;2.45;;
17564;SDS011;62994;52.126;5.596;2023-12-28T00:04:01;2.50;;;2.30;;
17564;SDS011;62994;52.126;5.596;2023-12-28T00:06:29;2.17;;;1.92;;
17564;SDS011;62994;52.126;5.596;2023-12-28T00:08:59;2.85;;;2.20;;
17564;SDS011;62994;52.126;5.596;2023-12-28T00:11:31;2.90;;;2.40;;
17564;SDS011;62994;52.126;5.596;2023-12-28T00:14:37;3.92;;;2.13;;
17564;SDS011;62994;52.126;5.596;2023-12-28T00:16:48;2.30;;;2.20;;
17564;SDS011;62994;52.126;5.596;2023-12-28T00:19:16;2.78;;;2.33;;
17564;SDS011;62994;52.126;5.596;2023-12-28T00:21:44;5.20;;;2.30;;
17564;SDS011;62994;52.126;5.596;2023-12-28T00:24:14;2.28;;;2.10;;
17564;SDS011;62994;52.126;5.596;2023-12-28T00:26:56;3.05;;;2.47;;
17564;SDS011;62994;52.126;5.596;2023-12-28T00:29:30;5.53;;;2.30;;
17564;SDS011;62994;52.126;5.596;2023-12-28T00:32:08;5.35;;;2.40;;
17564;SDS011;62994;52.126;5.596;2023-12-28T00:34:38;2.47;;;2.22;;
17564;SDS011;62994;52.126;5.596;2023-12-28T00:37:09;2.50;;;2.30;;
17564;SDS011;62994;52.126;5.596;2023-12-28T00:39:48;2.95;;;2.33;;
17564;SDS011;62994;52.126;5.596;2023-12-28T00:42:21;5.03;;;2.60;;
17564;SDS011;62994;52.126;5.596;2023-12-28T00:44:52;3.28;;;2.67;;
17564;SDS011;62994;52.126;5.596;2023-12-28T00:47:21;2.60;;;2.30;;
17564;SDS011;62994;52.126;5.596;2023-12-28T00:49:52;3.70;;;2.80;;
17564;SDS011;62994;52.126;5.596;2023-12-28T00:52:24;3.00;;;2.80;;
17564;SDS011;62994;52.126;5.596;2023-12-28T00:54:54;3.78;;;2.63;;
17564;SDS011;62994;52.126;5.596;2023-12-28T00:57:27;2.50;;;2.30;;
17564;SDS011;62994;52.126;5.596;2023-12-28T00:59:56;2.22;;;2.13;;
17564;SDS011;62994;52.126;5.596;2023-12-28T01:02:25;2.45;;;2.25;;
17564;SDS011;62994;52.126;5.596;2023-12-28T01:04:54;3.72;;;2.15;;
17564;SDS011;62994;52.126;5.596;2023-12-28T01:07:24;3.50;;;2.63;;
17564;SDS011;62994;52.126;5.596;2023-12-28T01:09:56;3.30;;;2.38;;
17564;SDS011;62994;52.126;5.596;2023-12-28T01:12:35;2.10;;;2.00;;
17564;SDS011;62994;52.126;5.596;2023-12-28T01:15:03;5.03;;;2.70;;
17564;SDS011;62994;52.126;5.596;2023-12-28T01:17:34;2.40;;;2.30;;
17564;SDS011;62994;52.126;5.596;2023-12-28T01:20:08;2.50;;;2.40;;
17564;SDS011;62994;52.126;5.596;2023-12-28T01:22:37;3.13;;;2.40;;
17564;SDS011;62994;52.126;5.596;2023-12-28T01:25:36;4.80;;;2.80;;
17564;SDS011;62994;52.126;5.596;2023-12-28T01:28:07;3.80;;;2.58;;
17564;SDS011;62994;52.126;5.596;2023-12-28T01:30:37;3.92;;;2.30;;
17564;SDS011;62994;52.126;5.596;2023-12-28T01:33:04;3.25;;;2.25;;
17564;SDS011;62994;52.126;5.596;2023-12-28T01:35:40;2.20;;;1.85;;
17564;SDS011;62994;52.126;5.596;2023-12-28T01:38:10;6.75;;;2.30;;
17564;SDS011;62994;52.126;5.596;2023-12-28T01:40:38;6.57;;;2.60;;
17564;SDS011;62994;52.126;5.596;2023-12-28T01:43:15;3.88;;;2.55;;
17564;SDS011;62994;52.126;5.596;2023-12-28T01:45:46;2.08;;;1.98;;
17564;SDS011;62994;52.126;5.596;2023-12-28T01:48:36;2.33;;;2.13;;
17564;SDS011;62994;52.126;5.596;2023-12-28T01:51:06;2.03;;;1.92;;
17564;SDS011;62994;52.126;5.596;2023-12-28T01:53:40;3.50;;;1.90;;
17564;SDS011;62994;52.126;5.596;2023-12-28T01:56:17;2.45;;;2.25;;
17564;SDS011;62994;52.126;5.596;2023-12-28T01:58:58;2.65;;;2.20;;
17564;SDS011;62994;52.126;5.596;2023-12-28T02:01:29;2.42;;;2.20;;
17564;SDS011;62994;52.126;5.596;2023-12-28T02:04:00;2.58;;;2.25;;
17564;SDS011;62994;52.126;5.596;2023-12-28T02:06:29;2.42;;;2.13;;
17564;SDS011;62994;52.126;5.596;2023-12-28T02:08:59;5.88;;;2.20;;
17564;SDS011;62994;52.126;5.596;2023-12-28T02:11:46;3.88;;;2.20;;
17564;SDS011;62994;52.126;5.596;2023-12-28T02:14:20;4.50;;;2.40;;
17564;SDS011;62994;52.126;5.596;2023-12-28T02:16:58;1.98;;;1.88;;
17564;SDS011;62994;52.126;5.596;2023-12-28T02:19:35;2.65;;;2.20;;
17564;SDS011;62994;52.126;5.596;2023-12-28T02:22:09;2.40;;;2.20;;
17564;SDS011;62994;52.126;5.596;2023-12-28T02:27:43;2.17;;;1.98;;
17564;SDS011;62994;52.126;5.596;2023-12-28T02:30:15;5.57;;;2.25;;
17564;SDS011;62994;52.126;5.596;2023-12-28T02:32:49;3.70;;;2.40;;
17564;SDS011;62994;52.126;5.596;2023-12-28T02:35:29;2.83;;;1.88;;
17564;SDS011;62994;52.126;5.596;2023-12-28T02:37:59;2.60;;;1.98;;
17564;SDS011;62994;52.126;5.596;2023-12-28T02:40:35;3.90;;;2.30;;
17564;SDS011;62994;52.126;5.596;2023-12-28T02:43:12;1.88;;;1.77;;
17564;SDS011;62994;52.126;5.596;2023-12-28T02:45:48;3.67;;;1.90;;
17564;SDS011;62994;52.126;5.596;2023-12-28T02:48:37;2.05;;;1.80;;
17564;SDS011;62994;52.126;5.596;2023-12-28T02:51:13;2.85;;;1.92;;
17564;SDS011;62994;52.126;5.596;2023-12-28T02:53:59;2.38;;;1.90;;
17564;SDS011;62994;52.126;5.596;2023-12-28T02:56:31;2.83;;;1.83;;
17564;SDS011;62994;52.126;5.596;2023-12-28T02:59:02;2.72;;;2.13;;
17564;SDS011;62994;52.126;5.596;2023-12-28T03:01:34;3.03;;;1.92;;
17564;SDS011;62994;52.126;5.596;2023-12-28T03:04:08;4.35;;;1.90;;
17564;SDS011;62994;52.126;5.596;2023-12-28T03:06:36;4.20;;;2.45;;
17564;SDS011;62994;52.126;5.596;2023-12-28T03:09:11;3.13;;;1.73;;
17564;SDS011;62994;52.126;5.596;2023-12-28T03:11:54;7.53;;;2.90;;
17564;SDS011;62994;52.126;5.596;2023-12-28T03:14:34;2.88;;;1.80;;
17564;SDS011;62994;52.126;5.596;2023-12-28T03:17:03;2.60;;;1.67;;
17564;SDS011;62994;52.126;5.596;2023-12-28T03:19:33;4.13;;;1.58;;
17564;SDS011;62994;52.126;5.596;2023-12-28T03:22:04;2.60;;;1.80;;
17564;SDS011;62994;52.126;5.596;2023-12-28T03:24:40;3.55;;;1.92;;
17564;SDS011;62994;52.126;5.596;2023-12-28T03:27:13;2.65;;;1.95;;
17564;SDS011;62994;52.126;5.596;2023-12-28T03:29:44;2.28;;;1.95;;
17564;SDS011;62994;52.126;5.596;2023-12-28T03:32:14;3.35;;;1.80;;
17564;SDS011;62994;52.126;5.596;2023-12-28T03:34:41;3.10;;;1.50;;
17564;SDS011;62994;52.126;5.596;2023-12-28T03:37:14;4.53;;;2.13;;
17564;SDS011;62994;52.126;5.596;2023-12-28T03:39:43;6.97;;;1.85;;
17564;SDS011;62994;52.126;5.596;2023-12-28T03:42:20;2.15;;;1.77;;
17564;SDS011;62994;52.126;5.596;2023-12-28T03:44:49;2.47;;;1.60;;
17564;SDS011;62994;52.126;5.596;2023-12-28T03:47:29;2.03;;;1.63;;
17564;SDS011;62994;52.126;5.596;2023-12-28T03:50:06;3.40;;;1.50;;
17564;SDS011;62994;52.126;5.596;2023-12-28T03:52:36;4.22;;;1.83;;
17564;SDS011;62994;52.126;5.596;2023-12-28T03:55:06;6.25;;;1.92;;
17564;SDS011;62994;52.126;5.596;2023-12-28T03:57:39;3.30;;;2.13;;
17564;SDS011;62994;52.126;5.596;2023-12-28T04:00:11;4.18;;;2.30;;
17564;SDS011;62994;52.126;5.596;2023-12-28T04:02:42;7.20;;;2.38;;
17564;SDS011;62994;52.126;5.596;2023-12-28T04:05:09;3.88;;;1.65;;
17564;SDS011;62994;52.126;5.596;2023-12-28T04:07:39;4.85;;;2.00;;
17564;SDS011;62994;52.126;5.596;2023-12-28T04:10:08;4.85;;;1.90;;
17564;SDS011;62994;52.126;5.596;2023-12-28T04:12:41;2.60;;;1.85;;
17564;SDS011;62994;52.126;5.596;2023-12-28T04:15:11;4.65;;;2.30;;
17564;SDS011;62994;52.126;5.596;2023-12-28T04:17:42;9.40;;;2.00;;
17564;SDS011;62994;52.126;5.596;2023-12-28T04:20:13;5.72;;;1.50;;
17564;SDS011;62994;52.126;5.596;2023-12-28T04:22:43;5.57;;;1.92;;
17564;SDS011;62994;52.126;5.596;2023-12-28T04:25:19;3.28;;;1.77;;
17564;SDS011;62994;52.126;5.596;2023-12-28T04:27:48;3.58;;;2.03;;
17564;SDS011;62994;52.126;5.596;2023-12-28T04:33:38;3.10;;;1.85;;
17564;SDS011;62994;52.126;5.596;2023-12-28T04:36:08;2.28;;;1.60;;
17564;SDS011;62994;52.126;5.596;2023-12-28T04:38:36;7.68;;;1.65;;
17564;SDS011;62994;52.126;5.596;2023-12-28T04:41:09;2.78;;;1.58;;
17564;SDS011;62994;52.126;5.596;2023-12-28T04:43:39;2.38;;;1.90;;
17564;SDS011;62994;52.126;5.596;2023-12-28T04:46:10;6.45;;;1.85;;
17564;SDS011;62994;52.126;5.596;2023-12-28T04:48:48;3.17;;;1.70;;
17564;SDS011;62994;52.126;5.596;2023-12-28T04:51:16;5.63;;;1.90;;
17564;SDS011;62994;52.126;5.596;2023-12-28T04:53:45;3.08;;;2.00;;
17564;SDS011;62994;52.126;5.596;2023-12-28T04:56:17;3.33;;;1.63;;
17564;SDS011;62994;52.126;5.596;2023-12-28T04:58:47;8.65;;;2.30;;
17564;SDS011;62994;52.126;5.596;2023-12-28T05:01:22;6.30;;;2.22;;
17564;SDS011;62994;52.126;5.596;2023-12-28T05:03:55;9.57;;;2.00;;
17564;SDS011;62994;52.126;5.596;2023-12-28T05:06:27;2.92;;;1.88;;
17564;SDS011;62994;52.126;5.596;2023-12-28T05:08:58;10.77;;;1.88;;
17564;SDS011;62994;52.126;5.596;2023-12-28T05:11:26;6.63;;;2.15;;
17564;SDS011;62994;52.126;5.596;2023-12-28T05:24:01;5.35;;;1.73;;
17564;SDS011;62994;52.126;5.596;2023-12-28T05:26:38;7.85;;;2.03;;
17564;SDS011;62994;52.126;5.596;2023-12-28T05:29:19;5.72;;;1.67;;
17564;SDS011;62994;52.126;5.596;2023-12-28T05:31:48;5.82;;;2.50;;
17564;SDS011;62994;52.126;5.596;2023-12-28T05:34:19;8.65;;;2.45;;
17564;SDS011;62994;52.126;5.596;2023-12-28T05:36:53;8.65;;;1.98;;
17564;SDS011;62994;52.126;5.596;2023-12-28T05:39:24;7.95;;;2.08;;
17564;SDS011;62994;52.126;5.596;2023-12-28T05:41:52;4.63;;;1.83;;
17564;SDS011;62994;52.126;5.596;2023-12-28T05:44:24;10.00;;;2.00;;
17564;SDS011;62994;52.126;5.596;2023-12-28T05:46:59;8.13;;;1.52;;
17564;SDS011;62994;52.126;5.596;2023-12-28T05:49:29;6.20;;;1.75;;
17564;SDS011;62994;52.126;5.596;2023-12-28T05:52:00;7.47;;;2.50;;
17564;SDS011;62994;52.126;5.596;2023-12-28T05:54:33;8.02;;;1.98;;
17564;SDS011;62994;52.126;5.596;2023-12-28T05:57:08;7.22;;;1.75;;
17564;SDS011;62994;52.126;5.596;2023-12-28T05:59:58;3.67;;;1.92;;
17564;SDS011;62994;52.126;5.596;2023-12-28T06:02:37;11.57;;;2.08;;
17564;SDS011;62994;52.126;5.596;2023-12-28T06:05:27;7.03;;;1.83;;
17564;SDS011;62994;52.126;5.596;2023-12-28T06:08:06;8.00;;;2.30;;
17564;SDS011;62994;52.126;5.596;2023-12-28T06:17:53;8.02;;;2.33;;
17564;SDS011;62994;52.126;5.596;2023-12-28T06:23:41;10.50;;;2.33;;
17564;SDS011;62994;52.126;5.596;2023-12-28T06:29:34;3.53;;;2.25;;
17564;SDS011;62994;52.126;5.596;2023-12-28T06:32:16;8.25;;;2.00;;
17564;SDS011;62994;52.126;5.596;2023-12-28T06:34:54;9.18;;;2.08;;
17564;SDS011;62994;52.126;5.596;2023-12-28T06:40:46;8.55;;;2.42;;
17564;SDS011;62994;52.126;5.596;2023-12-28T06:54:03;7.90;;;1.92;;
17564;SDS011;62994;52.126;5.596;2023-12-28T06:56:43;11.18;;;2.05;;
17564;SDS011;62994;52.126;5.596;2023-12-28T06:59:13;7.40;;;1.90;;
17564;SDS011;62994;52.126;5.596;2023-12-28T07:12:24;7.10;;;2.17;;
17564;SDS011;62994;52.126;5.596;2023-12-28T07:42:32;12.20;;;2.25;;
17564;SDS011;62994;52.126;5.596;2023-12-28T07:45:09;8.82;;;2.38;;
17564;SDS011;62994;52.126;5.596;2023-12-28T07:47:39;9.32;;;2.45;;
17564;SDS011;62994;52.126;5.596;2023-12-28T07:50:25;7.43;;;2.37;;
17564;SDS011;62994;52.126;5.596;2023-12-28T07:52:59;13.15;;;2.60;;
17564;SDS011;62994;52.126;5.596;2023-12-28T07:55:30;15.38;;;2.53;;
17564;SDS011;62994;52.126;5.596;2023-12-28T07:58:10;17.60;;;2.75;;
17564;SDS011;62994;52.126;5.596;2023-12-28T08:04:18;12.88;;;2.42;;
17564;SDS011;62994;52.126;5.596;2023-12-28T08:06:51;9.07;;;2.75;;
17564;SDS011;62994;52.126;5.596;2023-12-28T08:19:49;11.60;;;3.60;;
17564;SDS011;62994;52.126;5.596;2023-12-28T08:36:08;11.90;;;3.53;;
17564;SDS011;62994;52.126;5.596;2023-12-28T08:43:00;10.68;;;2.58;;
17564;SDS011;62994;52.126;5.596;2023-12-28T08:55:38;7.45;;;2.50;;
17564;SDS011;62994;52.126;5.596;2023-12-28T09:29:22;12.60;;;2.85;;
17564;SDS011;62994;52.126;5.596;2023-12-28T09:31:59;7.10;;;2.60;;
17564;SDS011;62994;52.126;5.596;2023-12-28T09:34:36;10.10;;;2.28;;
17564;SDS011;62994;52.126;5.596;2023-12-28T09:40:48;11.63;;;2.78;;
17564;SDS011;62994;52.126;5.596;2023-12-28T09:43:29;13.98;;;2.80;;
17564;SDS011;62994;52.126;5.596;2023-12-28T09:46:20;11.98;;;3.08;;
17564;SDS011;62994;52.126;5.596;2023-12-28T09:48:53;8.38;;;2.58;;
17564;SDS011;62994;52.126;5.596;2023-12-28T10:25:41;14.55;;;2.55;;
17564;SDS011;62994;52.126;5.596;2023-12-28T10:35:17;14.57;;;2.80;;
17564;SDS011;62994;52.126;5.596;2023-12-28T10:38:09;11.95;;;2.60;;
17564;SDS011;62994;52.126;5.596;2023-12-28T10:44:32;9.07;;;2.47;;
17564;SDS011;62994;52.126;5.596;2023-12-28T10:47:39;12.45;;;2.33;;
17564;SDS011;62994;52.126;5.596;2023-12-28T10:51:08;13.88;;;2.92;;
17564;SDS011;62994;52.126;5.596;2023-12-28T13:30:34;12.32;;;2.72;;
17564;SDS011;62994;52.126;5.596;2023-12-28T13:44:09;17.33;;;3.00;;
17564;SDS011;62994;52.126;5.596;2023-12-28T14:32:33;12.30;;;3.22;;
17564;SDS011;62994;52.126;5.596;2023-12-28T17:26:15;11.48;;;2.28;;
17564;SDS011;62994;52.126;5.596;2023-12-28T17:29:32;11.82;;;2.67;;
17564;SDS011;62994;52.126;5.596;2023-12-28T18:40:48;8.32;;;2.53;;
17564;SDS011;62994;52.126;5.596;2023-12-28T18:46:43;9.30;;;2.03;;
17564;SDS011;62994;52.126;5.596;2023-12-28T19:19:37;12.77;;;2.55;;
17564;SDS011;62994;52.126;5.596;2023-12-28T19:22:09;9.43;;;2.15;;
17564;SDS011;62994;52.126;5.596;2023-12-28T19:32:37;5.10;;;1.50;;
17564;SDS011;62994;52.126;5.596;2023-12-28T20:17:56;5.03;;;1.90;;
17564;SDS011;62994;52.126;5.596;2023-12-28T20:20:47;8.65;;;3.13;;
17564;SDS011;62994;52.126;5.596;2023-12-28T20:27:15;7.72;;;2.35;;
17564;SDS011;62994;52.126;5.596;2023-12-28T20:36:53;7.63;;;1.90;;
17564;SDS011;62994;52.126;5.596;2023-12-28T20:50:34;12.23;;;2.05;;
17564;SDS011;62994;52.126;5.596;2023-12-28T20:59:51;10.77;;;2.50;;
17564;SDS011;62994;52.126;5.596;2023-12-28T21:03:00;13.75;;;1.90;;
17564;SDS011;62994;52.126;5.596;2023-12-28T21:09:46;7.00;;;1.67;;
17564;SDS011;62994;52.126;5.596;2023-12-28T21:16:28;4.18;;;1.70;;
17564;SDS011;62994;52.126;5.596;2023-12-28T21:19:03;7.32;;;2.20;;
17564;SDS011;62994;52.126;5.596;2023-12-28T21:22:00;12.60;;;2.42;;
17564;SDS011;62994;52.126;5.596;2023-12-28T21:27:21;4.60;;;1.85;;
17564;SDS011;62994;52.126;5.596;2023-12-28T21:29:55;10.48;;;2.75;;
17564;SDS011;62994;52.126;5.596;2023-12-28T21:35:18;5.63;;;2.00;;
17564;SDS011;62994;52.126;5.596;2023-12-28T21:37:58;9.40;;;1.85;;
17564;SDS011;62994;52.126;5.596;2023-12-28T21:40:41;9.82;;;2.08;;
17564;SDS011;62994;52.126;5.596;2023-12-28T21:43:32;7.53;;;2.55;;
17564;SDS011;62994;52.126;5.596;2023-12-28T21:49:50;10.00;;;2.40;;
17564;SDS011;62994;52.126;5.596;2023-12-28T21:54:01;6.03;;;1.92;;
17564;SDS011;62994;52.126;5.596;2023-12-28T21:56:18;8.25;;;2.40;;
17564;SDS011;62994;52.126;5.596;2023-12-28T22:00:42;9.82;;;2.22;;
17564;SDS011;62994;52.126;5.596;2023-12-28T22:06:10;9.68;;;2.58;;
17564;SDS011;62994;52.126;5.596;2023-12-28T22:09:45;7.07;;;2.22;;
17564;SDS011;62994;52.126;5.596;2023-12-28T22:12:10;5.88;;;2.10;;
17564;SDS011;62994;52.126;5.596;2023-12-28T22:14:47;6.63;;;2.00;;
17564;SDS011;62994;52.126;5.596;2023-12-28T22:17:19;5.20;;;1.95;;
17564;SDS011;62994;52.126;5.596;2023-12-28T22:19:50;4.25;;;1.40;;
17564;SDS011;62994;52.126;5.596;2023-12-28T22:22:24;6.53;;;1.80;;
17564;SDS011;62994;52.126;5.596;2023-12-28T22:24:58;10.40;;;2.30;;
17564;SDS011;62994;52.126;5.596;2023-12-28T22:27:41;8.43;;;2.33;;
17564;SDS011;62994;52.126;5.596;2023-12-28T22:57:18;13.30;;;2.42;;
17564;SDS011;62994;52.126;5.596;2023-12-28T22:59:59;8.38;;;2.13;;
17564;SDS011;62994;52.126;5.596;2023-12-28T23:02:48;10.40;;;2.90;;
17564;SDS011;62994;52.126;5.596;2023-12-28T23:05:23;7.07;;;2.20;;
17564;SDS011;62994;52.126;5.596;2023-12-28T23:09:38;8.65;;;2.60;;
17564;SDS011;62994;52.126;5.596;2023-12-28T23:11:35;8.25;;;2.35;;
17564;SDS011;62994;52.126;5.596;2023-12-28T23:14:10;10.18;;;2.45;;
17564;SDS011;62994;52.126;5.596;2023-12-28T23:16:39;9.95;;;2.17;;
17564;SDS011;62994;52.126;5.596;2023-12-28T23:19:12;5.60;;;2.10;;
17564;SDS011;62994;52.126;5.596;2023-12-28T23:21:56;5.07;;;2.03;;
17564;SDS011;62994;52.126;5.596;2023-12-28T23:24:40;8.35;;;2.22;;
17564;SDS011;62994;52.126;5.596;2023-12-28T23:27:29;8.23;;;2.00;;
17564;SDS011;62994;52.126;5.596;2023-12-28T23:33:17;4.13;;;1.70;;
17564;SDS011;62994;52.126;5.596;2023-12-28T23:35:51;9.52;;;1.95;;
17564;SDS011;62994;52.126;5.596;2023-12-28T23:38:20;9.23;;;1.77;;
17564;SDS011;62994;52.126;5.596;2023-12-28T23:45:16;4.25;;;2.35;;
17564;SDS011;62994;52.126;5.596;2023-12-28T23:48:06;7.32;;;1.83;;
17564;SDS011;62994;52.126;5.596;2023-12-28T23:50:53;7.35;;;1.70;;
17564;SDS011;62994;52.126;5.596;2023-12-28T23:53:48;4.43;;;2.08;;
17564;SDS011;62994;52.126;5.596;2023-12-28T23:56:21;8.68;;;2.15;;
17564;SDS011;62994;52.126;5.596;2023-12-28T23:58:56;4.30;;;1.70;;
